createdAt,value
2017-02-05T00:00:07.232Z,23
2017-02-05T00:00:26.330Z,23.12
2017-02-05T00:00:46.752Z,23.07
2017-02-05T00:01:06.481Z,23.08
2017-02-05T00:01:26.226Z,23.09
2017-02-05T00:01:46.689Z,23.04
2017-02-05T00:02:06.466Z,23.09
2017-02-05T00:02:26.873Z,23.12
2017-02-05T00:02:46.625Z,23.09
2017-02-05T00:03:07.040Z,23.11
2017-02-05T00:03:27.446Z,23.08
2017-02-05T00:03:47.843Z,23.09
2017-02-05T00:04:08.246Z,23.09
2017-02-05T00:04:28.639Z,23.04
2017-02-05T00:04:49.056Z,23.11
2017-02-05T00:05:23.244Z,23.08
2017-02-05T00:05:43.640Z,23.09
2017-02-05T00:06:03.402Z,23.02
2017-02-05T00:06:23.769Z,22.99
2017-02-05T00:06:43.584Z,23.08
2017-02-05T00:07:03.973Z,23.07
2017-02-05T00:07:23.692Z,23.14
2017-02-05T00:07:44.067Z,23.07
2017-02-05T00:08:04.507Z,23.04
2017-02-05T00:08:24.240Z,23.08
2017-02-05T00:08:44.636Z,23.04
2017-02-05T00:09:04.401Z,23.12
2017-02-05T00:09:24.140Z,23.08
2017-02-05T00:09:44.514Z,23.09
2017-02-05T00:10:04.891Z,23.11
2017-02-05T00:10:25.257Z,23.11
2017-02-05T00:10:44.350Z,23.11
2017-02-05T00:11:04.736Z,23.04
2017-02-05T00:11:24.491Z,23.04
2017-02-05T00:11:44.911Z,22.99
2017-02-05T00:12:05.303Z,23
2017-02-05T00:12:25.664Z,23.05
2017-02-05T00:12:46.083Z,23.09
2017-02-05T00:13:06.480Z,23.02
2017-02-05T00:13:26.866Z,23.07
2017-02-05T00:13:47.304Z,22.99
2017-02-05T00:14:07.652Z,23.02
2017-02-05T00:14:28.072Z,22.96
2017-02-05T00:14:48.505Z,23.08
2017-02-05T00:15:08.877Z,22.96
2017-02-05T00:15:29.267Z,22.97
2017-02-05T00:15:49.647Z,22.93
2017-02-05T00:16:08.748Z,23
2017-02-05T00:16:29.134Z,22.99
2017-02-05T00:16:48.853Z,22.96
2017-02-05T00:17:09.266Z,23.04
2017-02-05T00:17:29.642Z,23.04
2017-02-05T00:17:50.062Z,23.07
2017-02-05T00:18:10.491Z,23.08
2017-02-05T00:18:30.242Z,23.07
2017-02-05T00:18:50.650Z,23.07
2017-02-05T00:19:10.403Z,22.96
2017-02-05T00:19:30.838Z,22.97
2017-02-05T00:19:50.631Z,23.08
2017-02-05T00:20:10.383Z,22.97
2017-02-05T00:20:30.769Z,22.96
2017-02-05T00:20:51.186Z,22.97
2017-02-05T00:21:10.977Z,23
2017-02-05T00:21:31.366Z,22.97
2017-02-05T00:21:51.137Z,23.05
2017-02-05T00:22:10.893Z,22.94
2017-02-05T00:22:30.658Z,23.09
2017-02-05T00:22:51.069Z,22.99
2017-02-05T00:23:10.851Z,22.97
2017-02-05T00:23:31.263Z,23.07
2017-02-05T00:23:52.250Z,22.96
2017-02-05T00:24:12.657Z,22.96
2017-02-05T00:24:33.070Z,23.04
2017-02-05T00:24:53.466Z,22.93
2017-02-05T00:25:13.856Z,22.93
2017-02-05T00:25:34.393Z,22.97
2017-02-05T00:25:54.798Z,23
2017-02-05T00:26:14.538Z,22.96
2017-02-05T00:26:35.032Z,22.97
2017-02-05T00:26:55.542Z,23.11
2017-02-05T00:27:15.941Z,23.02
2017-02-05T00:27:36.349Z,23.07
2017-02-05T00:27:56.920Z,23
2017-02-05T00:28:17.416Z,22.97
2017-02-05T00:28:37.813Z,22.99
2017-02-05T00:28:58.234Z,23
2017-02-05T00:29:18.629Z,23
2017-02-05T00:29:39.111Z,23.05
2017-02-05T00:29:59.499Z,23.04
2017-02-05T00:30:19.997Z,23
2017-02-05T00:30:39.788Z,23.04
2017-02-05T00:31:00.184Z,22.94
2017-02-05T00:31:20.626Z,23.02
2017-02-05T00:31:41.119Z,22.93
2017-02-05T00:32:01.565Z,23.05
2017-02-05T00:32:21.964Z,23.05
2017-02-05T00:32:42.414Z,23.07
2017-02-05T00:33:02.781Z,22.99
2017-02-05T00:33:23.215Z,23.05
2017-02-05T00:33:43.643Z,23.02
2017-02-05T00:34:04.086Z,22.93
2017-02-05T00:34:24.540Z,23
2017-02-05T00:34:44.918Z,22.96
2017-02-05T00:35:05.352Z,22.96
2017-02-05T00:35:25.745Z,22.97
2017-02-05T00:35:46.123Z,22.92
2017-02-05T00:36:06.564Z,22.9
2017-02-05T00:36:26.963Z,22.96
2017-02-05T00:36:47.379Z,22.9
2017-02-05T00:37:07.852Z,22.9
2017-02-05T00:37:28.257Z,22.93
2017-02-05T00:37:48.662Z,22.87
2017-02-05T00:38:09.096Z,22.89
2017-02-05T00:38:29.543Z,22.9
2017-02-05T00:38:49.938Z,22.89
2017-02-05T00:39:10.340Z,22.9
2017-02-05T00:39:30.729Z,22.94
2017-02-05T00:39:51.125Z,22.96
2017-02-05T00:40:11.556Z,23
2017-02-05T00:40:31.970Z,22.93
2017-02-05T00:40:52.637Z,22.99
2017-02-05T00:41:13.051Z,22.9
2017-02-05T00:41:33.466Z,22.99
2017-02-05T00:41:53.891Z,22.92
2017-02-05T00:42:13.672Z,23
2017-02-05T00:42:34.086Z,22.93
2017-02-05T00:42:54.483Z,22.94
2017-02-05T00:43:14.209Z,22.96
2017-02-05T00:43:34.588Z,22.99
2017-02-05T00:43:55.004Z,22.92
2017-02-05T00:44:15.436Z,23
2017-02-05T00:44:35.222Z,22.93
2017-02-05T00:44:55.619Z,22.9
2017-02-05T00:45:16.055Z,22.93
2017-02-05T00:45:36.456Z,22.9
2017-02-05T00:45:56.861Z,22.93
2017-02-05T00:46:17.230Z,22.93
2017-02-05T00:46:36.984Z,22.96
2017-02-05T00:46:57.347Z,22.89
2017-02-05T00:47:17.096Z,22.93
2017-02-05T00:47:37.593Z,22.93
2017-02-05T00:47:57.974Z,22.89
2017-02-05T00:48:18.419Z,22.9
2017-02-05T00:48:38.858Z,22.89
2017-02-05T00:48:59.235Z,22.89
2017-02-05T00:49:19.635Z,22.92
2017-02-05T00:49:40.030Z,22.86
2017-02-05T00:50:00.401Z,22.86
2017-02-05T00:50:19.513Z,22.93
2017-02-05T00:50:39.917Z,22.89
2017-02-05T00:51:00.306Z,22.89
2017-02-05T00:51:20.681Z,22.92
2017-02-05T00:51:41.090Z,22.9
2017-02-05T00:52:01.471Z,22.83
2017-02-05T00:52:21.885Z,22.87
2017-02-05T00:52:42.305Z,22.87
2017-02-05T00:53:02.709Z,22.9
2017-02-05T00:53:23.115Z,22.84
2017-02-05T00:53:43.536Z,22.83
2017-02-05T00:54:03.921Z,22.81
2017-02-05T00:54:23.681Z,22.9
2017-02-05T00:54:44.064Z,22.93
2017-02-05T00:55:03.776Z,23
2017-02-05T00:55:23.505Z,22.84
2017-02-05T00:55:43.308Z,22.9
2017-02-05T00:56:03.709Z,22.93
2017-02-05T00:56:23.441Z,22.89
2017-02-05T00:56:43.176Z,22.93
2017-02-05T00:57:03.583Z,22.89
2017-02-05T00:57:23.376Z,22.87
2017-02-05T00:57:43.281Z,22.9
2017-02-05T00:58:03.664Z,22.93
2017-02-05T00:58:23.450Z,22.89
2017-02-05T00:58:43.223Z,22.84
2017-02-05T00:59:03.672Z,22.92
2017-02-05T00:59:24.102Z,22.92
2017-02-05T00:59:43.848Z,22.84
2017-02-05T01:00:04.217Z,22.93
2017-02-05T01:00:23.936Z,22.89
2017-02-05T01:00:43.719Z,22.87
2017-02-05T01:01:04.134Z,22.86
2017-02-05T01:01:24.596Z,22.92
2017-02-05T01:01:45.010Z,22.87
2017-02-05T01:02:05.427Z,22.89
2017-02-05T01:02:25.819Z,22.9
2017-02-05T01:02:46.197Z,22.84
2017-02-05T01:03:06.604Z,22.83
2017-02-05T01:03:27.270Z,22.81
2017-02-05T01:03:47.636Z,22.83
2017-02-05T01:04:08.038Z,22.81
2017-02-05T01:04:27.831Z,22.75
2017-02-05T01:04:47.604Z,22.77
2017-02-05T01:05:08.003Z,22.84
2017-02-05T01:05:27.765Z,22.81
2017-02-05T01:05:48.178Z,22.84
2017-02-05T01:06:07.968Z,22.83
2017-02-05T01:06:28.457Z,22.83
2017-02-05T01:06:47.570Z,22.78
2017-02-05T01:07:07.983Z,22.78
2017-02-05T01:07:27.736Z,22.75
2017-02-05T01:07:48.137Z,22.78
2017-02-05T01:08:07.906Z,22.74
2017-02-05T01:08:28.290Z,22.74
2017-02-05T01:08:48.143Z,22.74
2017-02-05T01:09:09.213Z,22.72
2017-02-05T01:09:29.623Z,22.74
2017-02-05T01:09:49.379Z,22.71
2017-02-05T01:10:09.113Z,22.78
2017-02-05T01:10:29.523Z,22.74
2017-02-05T01:10:49.905Z,22.77
2017-02-05T01:11:10.273Z,22.81
2017-02-05T01:11:30.645Z,22.71
2017-02-05T01:11:51.065Z,22.78
2017-02-05T01:12:11.448Z,22.72
2017-02-05T01:12:31.822Z,22.77
2017-02-05T01:12:51.586Z,22.75
2017-02-05T01:13:12.010Z,22.74
2017-02-05T01:13:32.456Z,22.69
2017-02-05T01:13:52.156Z,22.74
2017-02-05T01:14:12.514Z,22.71
2017-02-05T01:14:32.893Z,22.71
2017-02-05T01:14:53.282Z,22.75
2017-02-05T01:15:13.709Z,22.74
2017-02-05T01:15:34.130Z,22.71
2017-02-05T01:15:54.550Z,22.67
2017-02-05T01:16:14.908Z,22.74
2017-02-05T01:16:35.296Z,22.69
2017-02-05T01:16:55.056Z,22.68
2017-02-05T01:17:15.486Z,22.71
2017-02-05T01:17:35.904Z,22.72
2017-02-05T01:17:55.644Z,22.79
2017-02-05T01:18:15.370Z,22.68
2017-02-05T01:18:35.749Z,22.65
2017-02-05T01:18:56.108Z,22.72
2017-02-05T01:19:16.536Z,22.74
2017-02-05T01:19:36.958Z,22.68
2017-02-05T01:19:57.372Z,22.67
2017-02-05T01:20:17.783Z,22.68
2017-02-05T01:20:38.242Z,22.65
2017-02-05T01:20:58.663Z,22.72
2017-02-05T01:21:18.369Z,22.69
2017-02-05T01:21:38.773Z,22.71
2017-02-05T01:21:59.133Z,22.67
2017-02-05T01:22:19.546Z,22.72
2017-02-05T01:22:39.947Z,22.65
2017-02-05T01:23:00.321Z,22.65
2017-02-05T01:23:20.719Z,22.68
2017-02-05T01:23:41.090Z,22.65
2017-02-05T01:24:01.489Z,22.68
2017-02-05T01:24:21.242Z,22.62
2017-02-05T01:24:41.731Z,22.68
2017-02-05T01:25:02.096Z,22.62
2017-02-05T01:25:22.492Z,22.65
2017-02-05T01:25:42.882Z,22.63
2017-02-05T01:26:03.771Z,22.57
2017-02-05T01:26:24.149Z,22.62
2017-02-05T01:26:44.563Z,22.63
2017-02-05T01:27:04.945Z,22.56
2017-02-05T01:27:25.339Z,22.56
2017-02-05T01:27:45.751Z,22.67
2017-02-05T01:28:06.125Z,22.59
2017-02-05T01:28:25.259Z,22.67
2017-02-05T01:28:45.677Z,22.62
2017-02-05T01:29:06.052Z,22.65
2017-02-05T01:29:26.418Z,22.68
2017-02-05T01:29:46.178Z,22.69
2017-02-05T01:30:06.600Z,22.69
2017-02-05T01:30:25.738Z,22.71
2017-02-05T01:30:46.173Z,22.69
2017-02-05T01:31:06.561Z,22.57
2017-02-05T01:31:26.943Z,22.6
2017-02-05T01:31:47.327Z,22.68
2017-02-05T01:32:07.757Z,22.67
2017-02-05T01:32:28.159Z,22.71
2017-02-05T01:32:48.560Z,22.65
2017-02-05T01:33:08.947Z,22.68
2017-02-05T01:33:29.351Z,22.57
2017-02-05T01:33:49.746Z,22.63
2017-02-05T01:34:10.114Z,22.63
2017-02-05T01:34:30.562Z,22.62
2017-02-05T01:34:50.939Z,22.54
2017-02-05T01:35:10.706Z,22.54
2017-02-05T01:35:31.140Z,22.56
2017-02-05T01:35:51.546Z,22.57
2017-02-05T01:36:11.308Z,22.59
2017-02-05T01:36:31.717Z,22.56
2017-02-05T01:36:51.441Z,22.53
2017-02-05T01:37:11.817Z,22.57
2017-02-05T01:37:32.205Z,22.59
2017-02-05T01:37:52.588Z,22.54
2017-02-05T01:38:12.354Z,22.59
2017-02-05T01:38:32.740Z,22.52
2017-02-05T01:38:53.140Z,22.54
2017-02-05T01:39:13.516Z,22.49
2017-02-05T01:39:33.939Z,22.56
2017-02-05T01:39:53.702Z,22.52
2017-02-05T01:40:14.103Z,22.42
2017-02-05T01:40:34.500Z,22.42
2017-02-05T01:40:54.908Z,22.46
2017-02-05T01:41:15.266Z,22.52
2017-02-05T01:41:35.048Z,22.46
2017-02-05T01:41:55.464Z,22.56
2017-02-05T01:42:15.879Z,22.44
2017-02-05T01:42:36.308Z,22.49
2017-02-05T01:42:56.700Z,22.42
2017-02-05T01:43:17.093Z,22.41
2017-02-05T01:43:51.268Z,22.38
2017-02-05T01:44:11.063Z,22.44
2017-02-05T01:44:31.469Z,22.37
2017-02-05T01:44:51.208Z,22.47
2017-02-05T01:45:10.977Z,22.5
2017-02-05T01:45:31.381Z,22.42
2017-02-05T01:45:51.111Z,22.46
2017-02-05T01:46:11.538Z,22.41
2017-02-05T01:46:31.978Z,22.41
2017-02-05T01:46:51.745Z,22.35
2017-02-05T01:47:12.163Z,22.34
2017-02-05T01:47:32.556Z,22.32
2017-02-05T01:47:52.963Z,22.37
2017-02-05T01:48:12.710Z,22.38
2017-02-05T01:48:33.101Z,22.32
2017-02-05T01:48:53.471Z,22.35
2017-02-05T01:49:13.873Z,22.38
2017-02-05T01:49:34.237Z,22.28
2017-02-05T01:49:53.975Z,22.35
2017-02-05T01:50:14.410Z,22.42
2017-02-05T01:50:34.809Z,22.37
2017-02-05T01:50:55.196Z,22.35
2017-02-05T01:51:15.567Z,22.35
2017-02-05T01:51:34.678Z,22.35
2017-02-05T01:51:55.122Z,22.39
2017-02-05T01:52:14.934Z,22.32
2017-02-05T01:52:34.751Z,22.26
2017-02-05T01:52:55.127Z,22.34
2017-02-05T01:53:15.519Z,22.35
2017-02-05T01:53:35.894Z,22.35
2017-02-05T01:53:56.321Z,22.39
2017-02-05T01:54:16.733Z,22.39
2017-02-05T01:54:37.179Z,22.24
2017-02-05T01:54:57.563Z,22.35
2017-02-05T01:55:18.001Z,22.35
2017-02-05T01:55:37.768Z,22.34
2017-02-05T01:55:58.175Z,22.38
2017-02-05T01:56:18.604Z,22.38
2017-02-05T01:56:39.005Z,22.34
2017-02-05T01:56:58.783Z,22.34
2017-02-05T01:57:19.237Z,22.39
2017-02-05T01:57:39.749Z,22.37
2017-02-05T01:58:00.156Z,22.32
2017-02-05T01:58:19.931Z,22.39
2017-02-05T01:58:40.372Z,22.35
2017-02-05T01:59:00.769Z,22.35
2017-02-05T01:59:20.528Z,22.38
2017-02-05T01:59:40.977Z,22.34
2017-02-05T02:00:01.435Z,22.35
2017-02-05T02:00:21.187Z,22.31
2017-02-05T02:00:41.599Z,22.38
2017-02-05T02:01:02.005Z,22.35
2017-02-05T02:01:22.404Z,22.35
2017-02-05T02:01:42.166Z,22.37
2017-02-05T02:02:02.535Z,22.38
2017-02-05T02:02:22.934Z,22.41
2017-02-05T02:02:43.360Z,22.37
2017-02-05T02:03:03.729Z,22.35
2017-02-05T02:03:24.109Z,22.37
2017-02-05T02:03:44.530Z,22.37
2017-02-05T02:04:04.321Z,22.35
2017-02-05T02:04:24.692Z,22.32
2017-02-05T02:04:45.103Z,22.3
2017-02-05T02:05:05.530Z,22.26
2017-02-05T02:05:25.282Z,22.31
2017-02-05T02:05:45.662Z,22.34
2017-02-05T02:06:06.033Z,22.41
2017-02-05T02:06:26.436Z,22.3
2017-02-05T02:06:46.831Z,22.31
2017-02-05T02:07:07.281Z,22.31
2017-02-05T02:07:27.668Z,22.26
2017-02-05T02:07:48.026Z,22.26
2017-02-05T02:08:08.434Z,22.35
2017-02-05T02:08:28.198Z,22.22
2017-02-05T02:08:48.615Z,22.32
2017-02-05T02:09:08.388Z,22.32
2017-02-05T02:09:28.848Z,22.37
2017-02-05T02:09:48.644Z,22.35
2017-02-05T02:10:07.754Z,22.32
2017-02-05T02:10:27.535Z,22.28
2017-02-05T02:10:48.047Z,22.34
2017-02-05T02:11:08.444Z,22.39
2017-02-05T02:11:28.838Z,22.31
2017-02-05T02:11:48.619Z,22.37
2017-02-05T02:12:08.369Z,22.28
2017-02-05T02:12:27.496Z,22.31
2017-02-05T02:12:47.922Z,22.37
2017-02-05T02:13:08.345Z,22.34
2017-02-05T02:13:28.757Z,22.35
2017-02-05T02:13:48.519Z,22.31
2017-02-05T02:14:08.949Z,22.26
2017-02-05T02:14:28.727Z,22.32
2017-02-05T02:14:48.475Z,22.3
2017-02-05T02:15:08.877Z,22.28
2017-02-05T02:15:29.319Z,22.24
2017-02-05T02:15:49.799Z,22.3
2017-02-05T02:16:09.580Z,22.24
2017-02-05T02:16:29.990Z,22.34
2017-02-05T02:16:50.380Z,22.28
2017-02-05T02:17:10.771Z,22.31
2017-02-05T02:17:31.305Z,22.26
2017-02-05T02:17:51.706Z,22.35
2017-02-05T02:18:12.096Z,22.35
2017-02-05T02:18:32.470Z,22.35
2017-02-05T02:18:52.891Z,22.28
2017-02-05T02:19:13.341Z,22.35
2017-02-05T02:19:33.767Z,22.28
2017-02-05T02:19:54.184Z,22.32
2017-02-05T02:20:13.940Z,22.31
2017-02-05T02:20:33.724Z,22.22
2017-02-05T02:20:54.122Z,22.3
2017-02-05T02:21:13.893Z,22.32
2017-02-05T02:21:34.296Z,22.26
2017-02-05T02:21:54.738Z,22.3
2017-02-05T02:22:15.153Z,22.34
2017-02-05T02:22:35.518Z,22.24
2017-02-05T02:22:55.269Z,22.24
2017-02-05T02:23:15.016Z,22.3
2017-02-05T02:23:34.762Z,22.31
2017-02-05T02:23:55.150Z,22.32
2017-02-05T02:24:15.533Z,22.22
2017-02-05T02:24:35.923Z,22.23
2017-02-05T02:24:55.673Z,22.3
2017-02-05T02:25:16.092Z,22.26
2017-02-05T02:25:36.485Z,22.28
2017-02-05T02:25:56.943Z,22.26
2017-02-05T02:26:17.323Z,22.34
2017-02-05T02:26:36.431Z,22.34
2017-02-05T02:26:56.845Z,22.22
2017-02-05T02:27:16.583Z,22.28
2017-02-05T02:27:36.630Z,22.28
2017-02-05T02:27:57.061Z,22.32
2017-02-05T02:28:17.442Z,22.2
2017-02-05T02:28:37.183Z,22.26
2017-02-05T02:28:57.586Z,22.23
2017-02-05T02:29:17.990Z,22.31
2017-02-05T02:29:38.396Z,22.26
2017-02-05T02:29:58.769Z,22.31
2017-02-05T02:30:19.158Z,22.22
2017-02-05T02:30:39.576Z,22.24
2017-02-05T02:30:59.945Z,22.19
2017-02-05T02:31:20.346Z,22.24
2017-02-05T02:31:40.777Z,22.26
2017-02-05T02:32:01.162Z,22.2
2017-02-05T02:32:21.550Z,22.23
2017-02-05T02:32:41.311Z,22.19
2017-02-05T02:33:01.052Z,22.16
2017-02-05T02:33:21.439Z,22.24
2017-02-05T02:33:41.833Z,22.22
2017-02-05T02:34:01.567Z,22.24
2017-02-05T02:34:21.954Z,22.19
2017-02-05T02:34:42.415Z,22.23
2017-02-05T02:35:02.185Z,22.26
2017-02-05T02:35:22.570Z,22.26
2017-02-05T02:35:42.335Z,22.23
2017-02-05T02:36:02.740Z,22.2
2017-02-05T02:36:23.144Z,22.26
2017-02-05T02:36:43.534Z,22.2
2017-02-05T02:37:03.890Z,22.19
2017-02-05T02:37:24.286Z,22.22
2017-02-05T02:37:44.687Z,22.19
2017-02-05T02:38:05.095Z,22.16
2017-02-05T02:38:25.481Z,22.16
2017-02-05T02:38:45.209Z,22.13
2017-02-05T02:39:05.606Z,22.17
2017-02-05T02:39:26.008Z,22.15
2017-02-05T02:39:46.355Z,22.16
2017-02-05T02:40:06.145Z,22.19
2017-02-05T02:40:25.969Z,22.13
2017-02-05T02:40:46.361Z,22.15
2017-02-05T02:41:06.770Z,22.17
2017-02-05T02:41:27.207Z,22.16
2017-02-05T02:41:47.635Z,22.22
2017-02-05T02:42:08.034Z,22.17
2017-02-05T02:42:28.443Z,22.16
2017-02-05T02:42:48.181Z,22.22
2017-02-05T02:43:07.926Z,22.2
2017-02-05T02:43:28.311Z,22.13
2017-02-05T02:43:48.713Z,22.19
2017-02-05T02:44:07.846Z,22.16
2017-02-05T02:44:27.635Z,22.19
2017-02-05T02:44:47.392Z,22.2
2017-02-05T02:45:07.803Z,22.16
2017-02-05T02:45:27.576Z,22.16
2017-02-05T02:45:47.961Z,22.16
2017-02-05T02:46:08.479Z,22.2
2017-02-05T02:46:28.567Z,22.17
2017-02-05T02:46:49.052Z,22.22
2017-02-05T02:47:09.446Z,22.16
2017-02-05T02:47:29.937Z,22.19
2017-02-05T02:47:50.409Z,22.16
2017-02-05T02:48:10.223Z,22.13
2017-02-05T02:48:30.715Z,22.17
2017-02-05T02:48:50.524Z,22.17
2017-02-05T02:49:11.450Z,22.17
2017-02-05T02:49:31.856Z,22.2
2017-02-05T02:49:52.255Z,22.16
2017-02-05T02:50:12.663Z,22.17
2017-02-05T02:50:33.141Z,22.16
2017-02-05T02:50:53.557Z,22.17
2017-02-05T02:51:14.048Z,22.22
2017-02-05T02:51:34.432Z,22.2
2017-02-05T02:51:54.895Z,22.17
2017-02-05T02:52:15.252Z,22.2
2017-02-05T02:52:35.016Z,22.24
2017-02-05T02:52:55.379Z,22.2
2017-02-05T02:53:15.773Z,22.2
2017-02-05T02:53:36.179Z,22.17
2017-02-05T02:53:56.568Z,22.16
2017-02-05T02:54:16.929Z,22.23
2017-02-05T02:54:37.311Z,22.2
2017-02-05T02:54:57.690Z,22.23
2017-02-05T02:55:18.110Z,22.23
2017-02-05T02:55:37.215Z,22.3
2017-02-05T02:55:56.966Z,22.23
2017-02-05T02:56:17.373Z,22.23
2017-02-05T02:56:37.128Z,22.2
2017-02-05T02:56:57.529Z,22.2
2017-02-05T02:57:17.927Z,22.26
2017-02-05T02:57:38.349Z,22.22
2017-02-05T02:57:58.734Z,22.3
2017-02-05T02:58:18.542Z,22.34
2017-02-05T02:58:38.935Z,22.23
2017-02-05T02:59:00.054Z,22.23
2017-02-05T02:59:20.459Z,22.2
2017-02-05T02:59:40.849Z,22.23
2017-02-05T03:00:01.281Z,22.28
2017-02-05T03:00:21.090Z,22.22
2017-02-05T03:00:41.521Z,22.2
2017-02-05T03:01:01.888Z,22.2
2017-02-05T03:01:22.289Z,22.17
2017-02-05T03:01:42.700Z,22.22
2017-02-05T03:02:03.132Z,22.15
2017-02-05T03:02:23.551Z,22.17
2017-02-05T03:02:43.980Z,22.19
2017-02-05T03:03:04.387Z,22.12
2017-02-05T03:03:24.743Z,22.15
2017-02-05T03:03:45.158Z,22.16
2017-02-05T03:04:05.579Z,22.07
2017-02-05T03:04:25.991Z,22.05
2017-02-05T03:04:46.432Z,22.04
2017-02-05T03:05:06.812Z,22.04
2017-02-05T03:05:27.201Z,22.04
2017-02-05T03:05:47.574Z,22.08
2017-02-05T03:06:07.352Z,22.05
2017-02-05T03:06:27.099Z,22.05
2017-02-05T03:06:47.509Z,22.04
2017-02-05T03:07:07.929Z,22.04
2017-02-05T03:07:27.692Z,22.07
2017-02-05T03:07:48.083Z,22.02
2017-02-05T03:08:08.496Z,22.13
2017-02-05T03:08:28.911Z,22.02
2017-02-05T03:08:49.319Z,22.07
2017-02-05T03:09:09.710Z,22.02
2017-02-05T03:09:30.126Z,22.08
2017-02-05T03:09:49.890Z,22.04
2017-02-05T03:10:09.647Z,22.02
2017-02-05T03:10:30.043Z,22.05
2017-02-05T03:10:50.450Z,22.08
2017-02-05T03:11:10.847Z,22.1
2017-02-05T03:11:31.238Z,22.05
2017-02-05T03:11:51.605Z,22.04
2017-02-05T03:12:12.016Z,22.07
2017-02-05T03:12:32.439Z,22.13
2017-02-05T03:12:52.849Z,22.08
2017-02-05T03:13:13.215Z,22.01
2017-02-05T03:13:33.591Z,22.01
2017-02-05T03:13:53.360Z,22.05
2017-02-05T03:14:13.724Z,22.05
2017-02-05T03:14:34.123Z,22.05
2017-02-05T03:14:54.488Z,22.08
2017-02-05T03:15:14.888Z,22.05
2017-02-05T03:15:34.639Z,22.05
2017-02-05T03:15:55.049Z,22.07
2017-02-05T03:16:14.819Z,22.05
2017-02-05T03:16:35.224Z,22.05
2017-02-05T03:16:54.988Z,22.02
2017-02-05T03:17:15.409Z,22.13
2017-02-05T03:17:35.800Z,22.16
2017-02-05T03:17:56.202Z,22.07
2017-02-05T03:18:16.615Z,22.07
2017-02-05T03:18:37.032Z,22.02
2017-02-05T03:18:57.477Z,22.07
2017-02-05T03:19:17.866Z,22.08
2017-02-05T03:19:38.292Z,22.04
2017-02-05T03:19:58.692Z,22.08
2017-02-05T03:20:19.079Z,22.05
2017-02-05T03:20:39.524Z,22.07
2017-02-05T03:20:59.928Z,22.04
2017-02-05T03:21:20.335Z,22.08
2017-02-05T03:21:40.717Z,22.08
2017-02-05T03:22:01.113Z,22.04
2017-02-05T03:22:21.534Z,22.08
2017-02-05T03:22:41.287Z,22.05
2017-02-05T03:23:01.036Z,22.05
2017-02-05T03:23:21.425Z,22.04
2017-02-05T03:23:41.834Z,22.13
2017-02-05T03:24:02.273Z,22.08
2017-02-05T03:24:22.222Z,22.05
2017-02-05T03:24:42.623Z,22.12
2017-02-05T03:25:02.386Z,22.17
2017-02-05T03:25:22.806Z,22.07
2017-02-05T03:25:43.211Z,22.22
2017-02-05T03:26:03.641Z,22.15
2017-02-05T03:26:23.422Z,22.17
2017-02-05T03:26:43.783Z,22.19
2017-02-05T03:27:04.190Z,22.19
2017-02-05T03:27:24.905Z,22.12
2017-02-05T03:27:45.441Z,22.19
2017-02-05T03:28:05.839Z,22.17
2017-02-05T03:28:26.237Z,22.2
2017-02-05T03:28:46.626Z,22.17
2017-02-05T03:29:07.029Z,22.19
2017-02-05T03:29:27.426Z,22.13
2017-02-05T03:29:47.791Z,22.16
2017-02-05T03:30:08.220Z,22.13
2017-02-05T03:30:28.621Z,22.19
2017-02-05T03:30:47.758Z,22.22
2017-02-05T03:31:08.150Z,22.19
2017-02-05T03:31:28.511Z,22.17
2017-02-05T03:31:48.870Z,22.19
2017-02-05T03:32:09.266Z,22.16
2017-02-05T03:32:29.658Z,22.23
2017-02-05T03:32:50.059Z,22.2
2017-02-05T03:33:10.454Z,22.17
2017-02-05T03:33:30.868Z,22.23
2017-02-05T03:33:50.618Z,22.24
2017-02-05T03:34:10.390Z,22.19
2017-02-05T03:34:30.772Z,22.23
2017-02-05T03:34:51.181Z,22.28
2017-02-05T03:35:10.937Z,22.2
2017-02-05T03:35:30.736Z,22.23
2017-02-05T03:35:50.498Z,22.19
2017-02-05T03:36:10.915Z,22.26
2017-02-05T03:36:30.672Z,22.17
2017-02-05T03:36:49.776Z,22.2
2017-02-05T03:37:10.168Z,22.17
2017-02-05T03:37:30.587Z,22.15
2017-02-05T03:37:50.968Z,22.17
2017-02-05T03:38:10.750Z,22.1
2017-02-05T03:38:31.209Z,22.12
2017-02-05T03:38:51.627Z,22.07
2017-02-05T03:39:12.008Z,22.08
2017-02-05T03:39:32.366Z,22.05
2017-02-05T03:39:52.737Z,22.02
2017-02-05T03:40:13.145Z,22.01
2017-02-05T03:40:33.509Z,22.01
2017-02-05T03:40:53.916Z,21.98
2017-02-05T03:41:14.346Z,21.95
2017-02-05T03:41:34.749Z,21.91
2017-02-05T03:41:55.147Z,22
2017-02-05T03:42:15.516Z,21.92
2017-02-05T03:42:35.911Z,21.98
2017-02-05T03:42:56.276Z,21.89
2017-02-05T03:43:16.692Z,21.91
2017-02-05T03:43:37.096Z,21.86
2017-02-05T03:43:56.831Z,21.94
2017-02-05T03:44:17.247Z,21.94
2017-02-05T03:44:37.638Z,21.82
2017-02-05T03:44:58.059Z,21.89
2017-02-05T03:45:17.805Z,21.92
2017-02-05T03:45:37.561Z,21.95
2017-02-05T03:45:57.943Z,21.84
2017-02-05T03:46:18.659Z,22.01
2017-02-05T03:46:39.334Z,21.85
2017-02-05T03:46:59.714Z,21.89
2017-02-05T03:47:20.143Z,21.92
2017-02-05T03:47:40.542Z,21.85
2017-02-05T03:48:00.944Z,21.86
2017-02-05T03:48:21.322Z,21.84
2017-02-05T03:48:41.736Z,21.86
2017-02-05T03:49:02.124Z,21.91
2017-02-05T03:49:22.546Z,21.92
2017-02-05T03:49:42.993Z,21.91
2017-02-05T03:50:03.374Z,21.84
2017-02-05T03:50:23.832Z,21.85
2017-02-05T03:50:43.609Z,21.89
2017-02-05T03:51:03.980Z,21.89
2017-02-05T03:51:24.348Z,21.86
2017-02-05T03:51:44.749Z,21.84
2017-02-05T03:52:05.166Z,21.85
2017-02-05T03:52:24.936Z,21.84
2017-02-05T03:52:45.362Z,21.78
2017-02-05T03:53:05.770Z,21.82
2017-02-05T03:53:26.154Z,21.79
2017-02-05T03:53:46.580Z,21.92
2017-02-05T03:54:06.982Z,21.75
2017-02-05T03:54:27.379Z,21.84
2017-02-05T03:54:47.770Z,21.84
2017-02-05T03:55:08.197Z,21.85
2017-02-05T03:55:28.557Z,21.78
2017-02-05T03:55:48.372Z,21.78
2017-02-05T03:56:08.794Z,21.84
2017-02-05T03:56:28.562Z,21.84
2017-02-05T03:56:48.329Z,21.85
2017-02-05T03:57:08.700Z,21.91
2017-02-05T03:57:29.100Z,21.85
2017-02-05T03:57:49.488Z,21.86
2017-02-05T03:58:09.205Z,21.85
2017-02-05T03:58:29.625Z,21.86
2017-02-05T03:58:53.975Z,21.85
2017-02-05T03:59:14.405Z,21.94
2017-02-05T03:59:34.797Z,21.97
2017-02-05T03:59:55.205Z,21.95
2017-02-05T04:00:15.636Z,21.92
2017-02-05T04:00:35.387Z,22.01
2017-02-05T04:00:55.748Z,21.95
2017-02-05T04:01:16.132Z,21.95
2017-02-05T04:01:35.892Z,21.95
2017-02-05T04:01:55.660Z,21.98
2017-02-05T04:02:16.055Z,21.92
2017-02-05T04:02:36.548Z,21.95
2017-02-05T04:02:56.925Z,21.94
2017-02-05T04:03:17.347Z,21.95
2017-02-05T04:03:37.777Z,21.97
2017-02-05T04:03:58.162Z,22.02
2017-02-05T04:04:18.553Z,22.01
2017-02-05T04:04:38.921Z,21.86
2017-02-05T04:04:59.311Z,22.01
2017-02-05T04:05:19.918Z,21.85
2017-02-05T04:05:40.316Z,22.01
2017-02-05T04:06:00.762Z,21.95
2017-02-05T04:06:20.521Z,21.94
2017-02-05T04:06:40.893Z,21.82
2017-02-05T04:07:01.277Z,21.85
2017-02-05T04:07:20.405Z,21.89
2017-02-05T04:07:41.056Z,21.89
2017-02-05T04:08:01.445Z,21.86
2017-02-05T04:08:21.826Z,21.89
2017-02-05T04:08:41.571Z,21.84
2017-02-05T04:09:01.972Z,21.78
2017-02-05T04:09:21.703Z,21.75
2017-02-05T04:09:42.125Z,21.76
2017-02-05T04:10:02.734Z,21.76
2017-02-05T04:10:23.159Z,21.78
2017-02-05T04:10:43.636Z,21.84
2017-02-05T04:11:04.057Z,21.84
2017-02-05T04:11:23.833Z,21.76
2017-02-05T04:11:44.257Z,21.86
2017-02-05T04:12:04.662Z,21.79
2017-02-05T04:12:24.447Z,21.79
2017-02-05T04:12:44.844Z,21.76
2017-02-05T04:13:05.198Z,21.78
2017-02-05T04:13:25.608Z,21.78
2017-02-05T04:13:45.353Z,21.79
2017-02-05T04:14:05.783Z,21.81
2017-02-05T04:14:24.897Z,21.75
2017-02-05T04:14:44.628Z,21.84
2017-02-05T04:15:05.017Z,21.79
2017-02-05T04:15:25.412Z,21.74
2017-02-05T04:15:45.815Z,21.81
2017-02-05T04:16:06.258Z,21.79
2017-02-05T04:16:26.001Z,21.81
2017-02-05T04:16:46.441Z,21.69
2017-02-05T04:17:06.826Z,21.75
2017-02-05T04:17:27.243Z,21.66
2017-02-05T04:17:47.635Z,21.76
2017-02-05T04:18:08.044Z,21.69
2017-02-05T04:18:28.416Z,21.82
2017-02-05T04:18:48.823Z,21.78
2017-02-05T04:19:09.212Z,21.74
2017-02-05T04:19:29.625Z,21.81
2017-02-05T04:19:49.979Z,21.74
2017-02-05T04:20:10.350Z,21.78
2017-02-05T04:20:30.790Z,21.72
2017-02-05T04:20:50.571Z,21.81
2017-02-05T04:21:10.979Z,21.66
2017-02-05T04:21:31.385Z,21.74
2017-02-05T04:21:51.772Z,21.74
2017-02-05T04:22:12.196Z,21.69